GE-0015 weather

Pskhu
Autonomous Republic of Abkhazia, Georgia

Public forecast

Using degrees Celsius for public forecast. Weather courtesy of forecast.io.

METAR (pilot weather report)

Closest report is Sochi International Airport, 37.8 nm (70.1 km) W. Retrieved 2019/08/20 15:30 UTC (0 seconds ago):

URSS 201530Z 21003MPS 9999 VCTS BKN022CB 26/23 Q1015 R02/010070 R06/010070 TEMPO -TSRA BKN015CB RMK R06/24002MPS MT OBSC QFE760

TAF (pilot weather forecast)

Closest forecast is Sochi International Airport, 37.8 nm (70.1 km) W. Retrieved 2019/08/20 15:24 UTC (0 seconds ago):

TAF URSS 201401Z 2015/2115 26005MPS 9999 BKN020CB OVC100 TEMPO 2015/2017 VRB07G12MPS -TSRA FM201700 05005MPS 9999 BKN011 BKN020CB OVC100 TEMPO 2017/2024 VRB07G14MPS 1000 TSRA BKN007 BKN020CB OVC100 BECMG 2100/2102 SCT020 FM210600 25003G08MPS 9999 SCT020 BECMG 2109/2110 28007MPS